Time;durP1;ratioP1;P1;durP2;ratioP2;P2;SDS_P1;SDS_P2;PMS_P1;PMS_P2;Temp;Humidity;BMP_temperature;BMP_pressure;BME280_temperature;BME280_humidity;BME280_pressure;Samples;Min_cycle;Max_cycle;Signal;HPM_P1;HPM_P2
2022/10/28 00:00:46;;;;;;;34.75;18.83;;;;;;;12.25;57.65;100707.66;5013464;28;19909;-65
2022/10/28 00:03:11;;;;;;;36.63;19.13;;;;;;;12.06;58.02;100703.03;5013601;28;20451;-64
2022/10/28 00:05:36;;;;;;;31.65;17.15;;;;;;;12.11;57.97;100705.75;5034602;28;20021;-65
2022/10/28 00:08:02;;;;;;;26.25;16.98;;;;;;;11.88;58.44;100716.84;5048098;28;20087;-64
2022/10/28 00:10:28;;;;;;;34.17;18.80;;;;;;;11.95;58.24;100708.03;5048449;28;20135;-65
2022/10/28 00:12:53;;;;;;;31.13;16.83;;;;;;;11.86;58.65;100704.28;5049344;28;20055;-64
2022/10/28 00:15:19;;;;;;;28.98;16.65;;;;;;;11.80;58.63;100709.19;5053401;28;20029;-64
2022/10/28 00:17:44;;;;;;;36.65;17.38;;;;;;;11.69;59.02;100704.94;5035600;28;20025;-64
2022/10/28 00:20:10;;;;;;;32.05;16.42;;;;;;;11.79;58.72;100713.13;5052692;28;20090;-64
2022/10/28 00:22:35;;;;;;;28.95;14.68;;;;;;;12.04;57.52;100708.13;5029374;28;20025;-65
2022/10/28 00:25:01;;;;;;;27.13;15.77;;;;;;;11.86;58.46;100702.34;5052570;28;20036;-64
2022/10/28 00:27:28;;;;;;;25.25;16.42;;;;;;;11.84;58.50;100704.63;5054862;28;20408;-64
2022/10/28 00:29:54;;;;;;;28.88;14.93;;;;;;;11.78;58.99;100705.88;5054965;28;20044;-64
2022/10/28 00:32:19;;;;;;;27.88;13.57;;;;;;;11.60;59.08;100705.69;5054852;28;20056;-64
2022/10/28 00:34:45;;;;;;;19.88;13.05;;;;;;;11.80;58.21;100704.41;5054766;28;20032;-64
2022/10/28 00:37:10;;;;;;;19.52;11.93;;;;;;;11.77;58.49;100701.41;5034947;28;20025;-64
2022/10/28 00:39:36;;;;;;;21.13;12.27;;;;;;;11.89;58.47;100706.50;5035842;28;20033;-64
2022/10/28 00:42:06;;;;;;;26.80;13.82;;;;;;;11.90;58.61;100706.16;5054336;28;20044;-64
2022/10/28 00:44:50;;;;;;;22.58;12.65;;;;;;;11.94;58.42;100711.97;5036832;28;20033;-64
2022/10/28 00:47:42;;;;;;;29.60;15.80;;;;;;;11.94;58.45;100704.41;5054587;28;20025;-64
2022/10/28 00:50:26;;;;;;;30.35;16.58;;;;;;;11.92;58.64;100701.06;5054596;28;20031;-64
2022/10/28 00:52:58;;;;;;;28.73;16.48;;;;;;;12.05;58.38;100709.78;5053531;28;20033;-65
2022/10/28 00:55:24;;;;;;;28.55;14.73;;;;;;;12.14;58.35;100713.50;5053256;28;20107;-64
2022/10/28 00:57:55;;;;;;;21.58;14.15;;;;;;;12.09;57.79;100708.03;5036512;28;20041;-64
2022/10/28 01:00:22;;;;;;;20.38;12.65;;;;;;;12.07;58.08;100702.72;5054595;28;20083;-66
2022/10/28 01:02:48;;;;;;;43.08;15.55;;;;;;;12.20;57.61;100717.03;5035346;28;20040;-64
2022/10/28 01:05:25;;;;;;;26.88;13.15;;;;;;;12.18;58.10;100710.91;5054321;28;20102;-64
2022/10/28 01:07:54;;;;;;;23.30;12.70;;;;;;;12.24;57.47;100714.44;5053075;28;20025;-65
2022/10/28 01:10:27;;;;;;;24.30;13.02;;;;;;;12.21;57.77;100713.94;5053907;28;20140;-65
2022/10/28 01:13:10;;;;;;;29.42;12.88;;;;;;;12.26;57.66;100703.72;5054023;28;20040;-65
2022/10/28 01:15:35;;;;;;;21.92;12.45;;;;;;;12.28;57.54;100705.06;5054050;28;20029;-64
2022/10/28 01:18:10;;;;;;;22.95;14.55;;;;;;;11.96;58.31;100708.88;5035951;28;20039;-65
2022/10/28 01:21:00;;;;;;;27.52;14.18;;;;;;;11.77;58.95;100709.81;5054050;28;20130;-65
2022/10/28 01:23:58;;;;;;;25.38;13.02;;;;;;;11.53;59.71;100708.06;5053150;28;20075;-64
2022/10/28 01:26:36;;;;;;;22.35;12.00;;;;;;;11.67;59.16;100699.66;5035512;28;20094;-64
2022/10/28 01:29:30;;;;;;;25.15;14.82;;;;;;;11.19;60.36;100696.13;5053871;28;20389;-64
2022/10/28 01:32:20;;;;;;;28.20;17.02;;;;;;;10.85;61.42;100711.28;5053572;28;20301;-64
2022/10/28 01:35:03;;;;;;;92.53;64.22;;;;;;;10.36;62.42;100713.44;5053322;28;20124;-64
2022/10/28 01:37:42;;;;;;;33.55;20.98;;;;;;;10.24;61.82;100722.28;5052692;28;20495;-64
2022/10/28 01:40:27;;;;;;;20.42;11.45;;;;;;;10.10;62.54;100717.47;5053477;28;20159;-64
2022/10/28 01:43:04;;;;;;;19.73;10.13;;;;;;;10.39;62.11;100718.44;5033693;28;20519;-65
2022/10/28 01:45:38;;;;;;;20.00;11.93;;;;;;;10.73;61.31;100716.53;5033678;28;20033;-64
2022/10/28 01:48:09;;;;;;;15.93;10.05;;;;;;;10.47;60.99;100709.38;5033604;28;20032;-64
2022/10/28 01:50:42;;;;;;;21.30;11.30;;;;;;;10.17;62.38;100719.03;5017829;28;20482;-65
2022/10/28 01:53:16;;;;;;;17.80;11.05;;;;;;;10.30;62.16;100721.06;5053308;28;20480;-64
2022/10/28 01:55:45;;;;;;;14.50;10.95;;;;;;;10.45;62.19;100725.63;5053050;28;20033;-63
2022/10/28 01:58:15;;;;;;;19.23;10.23;;;;;;;10.76;61.64;100727.94;5053285;28;20031;-64
2022/10/28 02:00:42;;;;;;;16.90;8.88;;;;;;;10.87;60.22;100728.59;5053361;28;20032;-64
2022/10/28 02:03:08;;;;;;;16.23;10.48;;;;;;;10.63;61.07;100725.94;5053115;28;20446;-64
2022/10/28 02:05:47;;;;;;;16.35;9.80;;;;;;;10.21;62.78;100734.09;5052203;28;20033;-63
2022/10/28 02:08:18;;;;;;;15.85;9.27;;;;;;;9.80;64.13;100732.69;5053019;28;20037;-63
2022/10/28 02:10:59;;;;;;;18.75;9.20;;;;;;;9.76;65.12;100729.66;5052633;28;20143;-64
2022/10/28 02:13:45;;;;;;;13.77;9.18;;;;;;;10.00;64.36;100733.53;5052913;28;20032;-64
2022/10/28 02:16:33;;;;;;;13.00;7.95;;;;;;;9.92;65.05;100735.03;5053042;28;20110;-64
2022/10/28 02:19:20;;;;;;;14.48;8.55;;;;;;;9.67;65.70;100734.22;5053017;28;20040;-64
2022/10/28 02:22:03;;;;;;;14.35;8.70;;;;;;;9.81;65.27;100729.56;5033615;28;20025;-65
2022/10/28 02:24:45;;;;;;;14.35;8.85;;;;;;;9.25;67.21;100736.63;5052643;28;20480;-64
2022/10/28 02:27:16;;;;;;;14.95;9.10;;;;;;;9.44;67.20;100745.09;5015052;28;20105;-64
2022/10/28 02:30:06;;;;;;;15.65;8.90;;;;;;;9.27;67.67;100742.75;5032803;28;20033;-63
2022/10/28 02:32:37;;;;;;;17.95;9.43;;;;;;;9.28;68.00;100738.84;5009905;28;20045;-64
2022/10/28 02:35:07;;;;;;;17.25;9.35;;;;;;;9.37;68.32;100739.84;5023893;28;20033;-63
2022/10/28 02:37:37;;;;;;;18.70;8.90;;;;;;;9.36;67.93;100735.41;5051877;28;20036;-63
2022/10/28 02:40:08;;;;;;;15.48;8.43;;;;;;;9.30;68.42;100719.84;5034083;28;20488;-64
2022/10/28 02:42:38;;;;;;;13.38;8.65;;;;;;;9.38;68.52;100735.13;5051883;28;20025;-64
2022/10/28 02:45:21;;;;;;;14.65;8.45;;;;;;;9.32;69.03;100739.09;5034287;28;20028;-64
2022/10/28 02:47:53;;;;;;;11.35;8.00;;;;;;;9.36;68.68;100749.38;5052259;28;20029;-64
2022/10/28 02:50:22;;;;;;;17.25;8.77;;;;;;;9.79;67.05;100750.56;5033814;28;20423;-64
2022/10/28 02:52:52;;;;;;;15.40;9.60;;;;;;;9.90;66.58;100749.31;5051016;28;20039;-64
2022/10/28 02:55:22;;;;;;;12.27;7.05;;;;;;;9.65;67.73;100756.88;5052198;28;20035;-64
2022/10/28 02:57:48;;;;;;;13.52;7.68;;;;;;;9.38;68.15;100754.66;5034316;28;20496;-64
2022/10/28 03:00:17;;;;;;;11.63;7.75;;;;;;;9.43;68.56;100759.38;5051911;28;20029;-64
2022/10/28 03:02:43;;;;;;;13.02;6.82;;;;;;;9.64;67.71;100757.97;5050432;28;20032;-64
2022/10/28 03:05:09;;;;;;;11.10;7.22;;;;;;;9.40;68.54;100756.00;5050973;28;20099;-64
2022/10/28 03:07:34;;;;;;;13.35;7.35;;;;;;;9.27;68.79;100753.91;5051926;28;20090;-64
2022/10/28 03:10:00;;;;;;;12.75;6.90;;;;;;;9.22;69.62;100756.78;5033965;28;20098;-64
2022/10/28 03:12:25;;;;;;;8.00;5.95;;;;;;;9.24;69.04;100757.31;5051766;28;20025;-65
2022/10/28 03:14:51;;;;;;;9.60;6.35;;;;;;;9.24;69.25;100749.78;5034137;28;20035;-64
2022/10/28 03:17:16;;;;;;;16.20;7.97;;;;;;;9.38;68.91;100757.47;5051448;28;20029;-64
2022/10/28 03:19:41;;;;;;;16.08;8.70;;;;;;;9.53;68.21;100756.44;5050582;28;20139;-63
2022/10/28 03:22:07;;;;;;;9.93;6.63;;;;;;;9.60;68.27;100751.34;5051473;28;20060;-64
2022/10/28 03:24:32;;;;;;;17.17;7.78;;;;;;;9.57;68.46;100757.53;5051470;28;20036;-64
2022/10/28 03:26:58;;;;;;;17.48;7.38;;;;;;;9.63;68.20;100759.13;5051638;28;20476;-64
2022/10/28 03:29:23;;;;;;;12.60;7.07;;;;;;;9.78;67.27;100755.31;5033591;28;20029;-64
2022/10/28 03:31:49;;;;;;;14.30;7.57;;;;;;;10.01;66.52;100755.59;5051521;28;20025;-64
2022/10/28 03:34:14;;;;;;;14.73;7.00;;;;;;;9.96;65.65;100762.06;5023772;28;20025;-64
2022/10/28 03:36:40;;;;;;;13.10;7.53;;;;;;;9.97;66.18;100762.94;5031670;28;20029;-64
2022/10/28 03:39:05;;;;;;;12.98;7.35;;;;;;;10.24;65.01;100770.66;5051139;28;20039;-63
2022/10/28 03:41:31;;;;;;;16.95;7.45;;;;;;;10.22;64.87;100758.94;5033503;28;20029;-64
2022/10/28 03:43:56;;;;;;;11.75;7.30;;;;;;;10.05;65.77;100762.25;5051336;28;20021;-65
2022/10/28 03:46:21;;;;;;;16.20;10.45;;;;;;;10.19;65.04;100762.34;5051638;28;20036;-64
2022/10/28 03:48:47;;;;;;;55.80;32.95;;;;;;;10.42;64.66;100768.22;5050087;28;20082;-64
2022/10/28 03:51:12;;;;;;;95.55;56.45;;;;;;;10.56;63.76;100759.91;5050948;28;20086;-64
2022/10/28 03:53:38;;;;;;;54.58;28.80;;;;;;;10.36;63.82;100758.19;5031228;28;20503;-65
2022/10/28 03:56:04;;;;;;;34.58;21.58;;;;;;;10.35;63.96;100762.13;5049600;28;20500;-65
2022/10/28 03:58:29;;;;;;;35.40;21.65;;;;;;;10.43;63.73;100758.69;5050903;28;20029;-64
2022/10/28 04:00:55;;;;;;;40.78;23.88;;;;;;;10.41;63.19;100763.75;5050444;28;20036;-64
2022/10/28 04:03:22;;;;;;;34.10;24.10;;;;;;;10.43;63.80;100758.69;5049996;28;20057;-64
2022/10/28 04:05:48;;;;;;;21.23;12.85;;;;;;;9.98;65.12;100759.81;5051098;28;20352;-66
2022/10/28 04:08:17;;;;;;;17.92;9.75;;;;;;;9.56;66.27;100758.66;5050893;28;20032;-64
2022/10/28 04:10:43;;;;;;;17.97;8.77;;;;;;;9.40;67.27;100758.00;5050923;28;20052;-64
2022/10/28 04:13:09;;;;;;;21.30;12.65;;;;;;;9.34;67.39;100751.63;5032910;28;20521;-63
2022/10/28 04:15:35;;;;;;;21.88;12.52;;;;;;;9.15;68.24;100747.91;5049193;28;20086;-64
2022/10/28 04:18:00;;;;;;;19.42;12.90;;;;;;;9.05;68.52;100749.69;5026879;28;20025;-64
2022/10/28 04:20:27;;;;;;;25.83;12.68;;;;;;;9.05;68.91;100754.44;5030730;28;20432;-63
2022/10/28 04:22:53;;;;;;;21.95;11.02;;;;;;;9.15;69.10;100753.50;5046620;28;20064;-63
2022/10/28 04:25:20;;;;;;;24.83;11.63;;;;;;;9.22;67.92;100757.59;5047000;28;20396;-64
2022/10/28 04:27:46;;;;;;;17.88;11.93;;;;;;;9.30;67.90;100761.72;5049032;28;20021;-64
2022/10/28 04:30:13;;;;;;;19.67;11.02;;;;;;;9.43;67.19;100756.56;5032532;28;20074;-64
2022/10/28 04:32:39;;;;;;;28.45;12.70;;;;;;;9.50;66.67;100765.41;5032848;28;20029;-63
2022/10/28 04:35:05;;;;;;;41.40;16.45;;;;;;;9.63;66.58;100752.72;5050683;28;20029;-64
2022/10/28 04:37:31;;;;;;;24.75;11.80;;;;;;;9.63;66.11;100753.53;5034771;28;20021;-64
2022/10/28 04:39:56;;;;;;;23.55;10.18;;;;;;;9.60;65.71;100756.94;5050264;28;20056;-64
2022/10/28 04:42:22;;;;;;;15.00;7.93;;;;;;;9.33;66.20;100761.13;5037539;28;20026;-63
2022/10/28 04:44:48;;;;;;;18.13;9.15;;;;;;;9.13;66.61;100763.00;5050479;28;20028;-65
2022/10/28 04:47:13;;;;;;;22.13;8.27;;;;;;;8.94;67.80;100759.28;5032909;28;20032;-65
2022/10/28 04:49:39;;;;;;;13.15;8.43;;;;;;;8.92;67.76;100750.34;5050709;28;20432;-65
2022/10/28 04:52:04;;;;;;;21.23;9.77;;;;;;;8.74;68.19;100760.25;5050220;28;20040;-66
2022/10/28 04:54:30;;;;;;;21.63;10.38;;;;;;;8.50;69.13;100750.69;5032616;28;20082;-64
2022/10/28 04:56:55;;;;;;;16.45;9.68;;;;;;;8.52;69.04;100765.16;5041565;28;20028;-66
2022/10/28 04:59:20;;;;;;;18.52;9.20;;;;;;;8.37;69.58;100756.88;5050317;28;20096;-65
2022/10/28 05:01:46;;;;;;;24.80;9.93;;;;;;;8.27;69.79;100753.03;5034892;28;20029;-66
2022/10/28 05:04:11;;;;;;;30.88;12.02;;;;;;;8.12;71.09;100762.31;5053861;28;20024;-66
2022/10/28 05:06:37;;;;;;;18.83;9.38;;;;;;;8.16;71.20;100762.56;5050176;28;20024;-64
2022/10/28 05:09:03;;;;;;;19.45;9.55;;;;;;;8.29;71.22;100761.09;5034853;28;20499;-65
2022/10/28 05:11:28;;;;;;;38.78;11.98;;;;;;;8.35;70.69;100770.28;5052947;28;20033;-65
2022/10/28 05:13:53;;;;;;;27.95;12.52;;;;;;;8.55;70.06;100763.75;5053928;28;20021;-66
2022/10/28 05:16:19;;;;;;;24.45;11.90;;;;;;;8.51;69.75;100766.28;5044012;28;20030;-64
2022/10/28 05:18:45;;;;;;;23.83;11.00;;;;;;;8.47;70.35;100767.97;5046288;28;20487;-63
2022/10/28 05:21:10;;;;;;;30.13;11.07;;;;;;;8.45;71.10;100773.00;5051297;28;20028;-64
2022/10/28 05:23:36;;;;;;;38.42;11.23;;;;;;;8.41;71.66;100775.53;5051387;28;20060;-65
2022/10/28 05:26:01;;;;;;;33.67;12.82;;;;;;;8.26;72.56;100775.59;5049307;28;20510;-64
2022/10/28 05:28:27;;;;;;;28.00;11.57;;;;;;;8.39;71.64;100782.50;5033334;28;20442;-63
2022/10/28 05:30:52;;;;;;;22.63;11.93;;;;;;;8.46;71.30;100783.03;5033550;28;20033;-65
2022/10/28 05:33:18;;;;;;;21.10;11.60;;;;;;;8.57;71.42;100795.81;5033728;28;20116;-64
2022/10/28 05:35:43;;;;;;;22.30;10.75;;;;;;;8.60;71.30;100805.53;5050837;28;20029;-64
2022/10/28 05:38:09;;;;;;;16.17;11.07;;;;;;;8.47;71.65;100795.84;5055201;28;20507;-63
2022/10/28 05:40:34;;;;;;;26.17;18.77;;;;;;;8.27;72.82;100799.59;5044631;28;20796;-64
2022/10/28 05:43:01;;;;;;;35.58;20.48;;;;;;;8.32;72.37;100802.34;5031852;28;20025;-64
2022/10/28 05:45:27;;;;;;;49.30;20.65;;;;;;;8.31;72.76;100813.78;5040170;28;20063;-65
2022/10/28 05:47:53;;;;;;;24.70;14.25;;;;;;;8.48;71.67;100810.63;5036369;28;20139;-66
2022/10/28 05:50:19;;;;;;;21.48;13.63;;;;;;;8.54;71.74;100806.72;5046046;28;20479;-67
2022/10/28 05:52:49;;;;;;;26.58;12.65;;;;;;;8.46;71.82;100808.13;5028964;28;20045;-66
2022/10/28 05:55:18;;;;;;;;;;;;;;;8.57;71.49;100812.56;5028189;28;20025;-65
2022/10/28 05:57:44;;;;;;;34.03;13.25;;;;;;;8.69;71.23;100805.78;5047000;28;19936;-66
2022/10/28 06:00:10;;;;;;;39.40;25.67;;;;;;;8.84;71.16;100800.09;5047525;28;20043;-63
2022/10/28 06:02:36;;;;;;;201.82;134.05;;;;;;;9.06;69.98;100807.19;5030869;28;20031;-64
2022/10/28 06:05:01;;;;;;;286.70;175.10;;;;;;;9.12;69.56;100811.56;5028465;28;20037;-66
2022/10/28 06:07:28;;;;;;;250.60;166.68;;;;;;;9.43;69.14;100816.03;5050401;28;20033;-66
2022/10/28 06:09:53;;;;;;;52.55;35.30;;;;;;;9.46;69.35;100809.84;5046183;28;20538;-63
2022/10/28 06:12:19;;;;;;;38.08;21.58;;;;;;;9.58;69.16;100828.19;5049829;28;20025;-65
2022/10/28 06:14:44;;;;;;;21.65;15.43;;;;;;;9.75;68.63;100830.50;5047934;28;20037;-66
2022/10/28 06:17:10;;;;;;;20.65;10.77;;;;;;;9.83;67.55;100830.72;5049644;28;20029;-66
2022/10/28 06:19:35;;;;;;;18.67;10.23;;;;;;;9.93;68.07;100840.09;5050272;28;20025;-65
2022/10/28 06:22:01;;;;;;;15.88;9.52;;;;;;;10.09;66.64;100846.34;5048600;28;20033;-66
2022/10/28 06:24:26;;;;;;;17.95;8.77;;;;;;;10.19;65.87;100831.41;5032868;28;20036;-67
2022/10/28 06:26:51;;;;;;;18.08;9.10;;;;;;;10.27;66.05;100839.13;5032429;28;20064;-66
2022/10/28 06:29:17;;;;;;;19.20;10.50;;;;;;;10.43;66.13;100830.56;5031327;28;20106;-67
2022/10/28 06:31:43;;;;;;;22.42;10.05;;;;;;;10.57;65.48;100834.28;5029344;28;20037;-67
2022/10/28 06:34:09;;;;;;;15.70;9.63;;;;;;;10.84;64.89;100834.72;5047722;28;20412;-67
2022/10/28 06:36:35;;;;;;;18.98;9.55;;;;;;;11.09;63.86;100831.50;5052438;28;20522;-67
2022/10/28 06:39:00;;;;;;;17.15;9.95;;;;;;;11.08;64.15;100829.03;5036431;28;20064;-68
2022/10/28 06:41:26;;;;;;;27.10;10.05;;;;;;;11.21;63.50;100827.41;5051878;28;20099;-67
2022/10/28 06:43:51;;;;;;;24.08;9.05;;;;;;;11.33;63.07;100833.34;5033471;28;20028;-67
2022/10/28 06:46:18;;;;;;;16.00;7.57;;;;;;;11.59;62.19;100835.72;5033937;28;20049;-66
2022/10/28 06:48:44;;;;;;;13.55;8.23;;;;;;;11.75;61.64;100836.25;5051670;28;20484;-67
2022/10/28 06:51:09;;;;;;;16.00;8.48;;;;;;;11.61;61.54;100838.19;5051892;28;20020;-66
2022/10/28 06:53:35;;;;;;;20.60;8.45;;;;;;;11.41;62.47;100833.81;5039036;28;20072;-67
2022/10/28 06:56:00;;;;;;;21.70;8.32;;;;;;;11.50;62.17;100823.56;5047893;28;20033;-66
2022/10/28 06:58:26;;;;;;;30.90;8.07;;;;;;;11.77;62.21;100825.56;5046001;28;20032;-68
2022/10/28 07:00:51;;;;;;;20.13;8.88;;;;;;;12.10;60.70;100821.88;5020479;28;20488;-72
2022/10/28 07:03:17;;;;;;;21.48;8.75;;;;;;;12.15;60.41;100830.16;5052250;28;20036;-66
2022/10/28 07:05:44;;;;;;;29.33;9.25;;;;;;;12.29;60.15;100824.56;5043808;28;20036;-66
2022/10/28 07:08:09;;;;;;;20.73;7.38;;;;;;;12.40;59.50;100821.53;5051486;28;20036;-68
2022/10/28 07:10:35;;;;;;;15.43;8.60;;;;;;;12.68;57.76;100822.28;5051687;28;20049;-69
2022/10/28 07:13:00;;;;;;;14.90;7.30;;;;;;;12.77;57.97;100820.38;5033239;28;20124;-67
2022/10/28 07:15:26;;;;;;;17.88;7.75;;;;;;;12.75;58.05;100824.66;5052251;28;20040;-66
2022/10/28 07:17:53;;;;;;;11.15;7.20;;;;;;;12.96;57.45;100819.38;5030241;28;20032;-66
2022/10/28 07:20:19;;;;;;;11.63;7.03;;;;;;;13.24;56.21;100816.44;5031300;28;20064;-67
2022/10/28 07:22:44;;;;;;;20.40;10.55;;;;;;;13.54;55.76;100814.00;5050513;28;20162;-67
2022/10/28 07:25:10;;;;;;;14.63;8.85;;;;;;;13.74;54.94;100814.59;5050995;28;20029;-67
2022/10/28 07:27:35;;;;;;;15.45;8.02;;;;;;;13.66;54.66;100818.22;5033133;28;20120;-66
2022/10/28 07:30:01;;;;;;;21.15;10.60;;;;;;;13.79;54.68;100816.44;5051276;28;20044;-66
2022/10/28 07:32:30;;;;;;;13.55;8.45;;;;;;;13.94;54.23;100820.81;5050096;28;20033;-66
2022/10/28 07:34:56;;;;;;;12.88;6.97;;;;;;;14.06;53.65;100822.97;5046975;28;20040;-66
2022/10/28 07:37:21;;;;;;;10.35;6.25;;;;;;;14.09;53.39;100823.16;5043653;28;20033;-69
2022/10/28 07:39:47;;;;;;;12.13;6.63;;;;;;;14.17;53.26;100824.34;5049212;28;20029;-68
2022/10/28 07:42:12;;;;;;;14.90;6.10;;;;;;;14.31;53.26;100819.44;5027037;28;20060;-68
2022/10/28 07:44:38;;;;;;;9.35;4.88;;;;;;;14.24;53.11;100818.22;5044165;28;20096;-67
2022/10/28 07:47:03;;;;;;;10.43;6.25;;;;;;;14.36;53.26;100814.78;5023594;28;20025;-70
2022/10/28 07:49:29;;;;;;;11.90;5.80;;;;;;;14.45;52.40;100819.28;5049542;28;20032;-69
2022/10/28 07:51:54;;;;;;;19.70;6.45;;;;;;;14.34;53.09;100817.13;5048809;28;20060;-69
2022/10/28 07:54:20;;;;;;;15.73;5.35;;;;;;;14.41;53.07;100814.63;5033644;28;20040;-69
2022/10/28 07:56:46;;;;;;;13.07;6.47;;;;;;;14.09;53.30;100817.53;5050485;28;20028;-69
2022/10/28 07:59:11;;;;;;;16.65;7.25;;;;;;;14.43;53.27;100813.16;5049713;28;20024;-68
2022/10/28 08:01:37;;;;;;;12.93;6.25;;;;;;;14.16;53.92;100814.25;5039250;28;20026;-65
2022/10/28 08:04:02;;;;;;;12.25;6.93;;;;;;;14.46;53.27;100815.31;5041991;28;20036;-66
2022/10/28 08:06:28;;;;;;;13.70;6.00;;;;;;;14.81;52.64;100819.34;5042770;28;20051;-66
2022/10/28 08:08:55;;;;;;;10.90;5.88;;;;;;;14.38;53.17;100821.75;5042726;28;20075;-66
2022/10/28 08:11:22;;;;;;;10.80;6.28;;;;;;;14.66;52.79;100813.00;5050510;28;20057;-66
2022/10/28 08:13:49;;;;;;;11.32;5.80;;;;;;;14.65;52.21;100810.50;5041893;28;20041;-67
2022/10/28 08:16:15;;;;;;;10.20;5.85;;;;;;;15.00;52.40;100814.22;5048091;28;20039;-66
2022/10/28 08:18:41;;;;;;;9.75;6.32;;;;;;;15.29;51.04;100811.84;5042157;28;20446;-69
2022/10/28 08:21:09;;;;;;;11.00;6.47;;;;;;;15.09;51.62;100807.75;5046981;28;20057;-66
2022/10/28 08:23:35;;;;;;;15.73;6.28;;;;;;;15.02;51.48;100800.63;5040268;28;20030;-66
2022/10/28 08:26:01;;;;;;;9.15;6.55;;;;;;;15.36;51.66;100812.16;5042275;28;20033;-66
2022/10/28 08:28:27;;;;;;;23.27;7.45;;;;;;;15.57;50.57;100805.81;5021157;28;20033;-66
2022/10/28 08:30:52;;;;;;;9.07;6.45;;;;;;;15.58;49.98;100802.66;5047064;28;20415;-66
2022/10/28 08:33:18;;;;;;;14.82;6.88;;;;;;;15.79;49.82;100801.91;5049810;28;20033;-67
2022/10/28 08:35:50;;;;;;;10.63;6.13;;;;;;;16.08;49.32;100802.31;5034977;28;20111;-66
2022/10/28 08:38:15;;;;;;;16.33;5.80;;;;;;;16.10;49.12;100795.16;5054002;28;20028;-69
2022/10/28 08:40:41;;;;;;;12.57;7.65;;;;;;;16.37;48.36;100797.81;5044355;28;20026;-67
2022/10/28 08:43:24;;;;;;;11.45;6.43;;;;;;;16.57;47.80;100793.38;5051509;28;20017;-67
2022/10/28 08:45:49;;;;;;;25.42;6.25;;;;;;;16.64;47.49;100790.78;5046438;28;20025;-67
2022/10/28 08:48:28;;;;;;;10.13;5.50;;;;;;;16.50;47.67;100790.25;5034650;28;20699;-72
2022/10/28 08:51:19;;;;;;;14.15;7.13;;;;;;;16.59;47.97;100787.34;5047854;28;20029;-65
2022/10/28 08:53:59;;;;;;;14.45;6.93;;;;;;;16.89;47.12;100790.09;5045071;28;20025;-65
2022/10/28 08:56:33;;;;;;;11.13;6.07;;;;;;;16.45;47.80;100779.97;5036362;28;20056;-70
2022/10/28 08:59:03;;;;;;;11.02;5.80;;;;;;;16.88;47.05;100780.78;5050806;28;20048;-69
2022/10/28 09:01:36;;;;;;;12.02;6.95;;;;;;;16.86;47.35;100785.97;5048413;28;20025;-68
2022/10/28 09:04:12;;;;;;;9.68;5.95;;;;;;;17.12;46.90;100782.94;5047004;28;20033;-70
2022/10/28 09:06:37;;;;;;;14.30;6.20;;;;;;;17.10;46.58;100778.78;5043726;28;20039;-72
2022/10/28 09:09:03;;;;;;;13.30;5.55;;;;;;;17.56;45.82;100773.16;5053069;28;20032;-69
2022/10/28 09:11:49;;;;;;;11.73;5.45;;;;;;;17.86;45.35;100766.44;5051383;28;20045;-75
2022/10/28 09:14:20;;;;;;;12.43;5.82;;;;;;;17.87;44.87;100762.47;5027918;28;20122;-72
2022/10/28 09:16:48;;;;;;;19.73;5.72;;;;;;;17.76;45.12;100757.25;5036741;28;20083;-73
2022/10/28 09:19:14;;;;;;;8.90;6.32;;;;;;;17.58;45.33;100761.47;5048852;28;21432;-71
2022/10/28 09:21:50;;;;;;;13.50;6.10;;;;;;;17.90;45.04;100756.09;5027685;28;20090;-72
2022/10/28 09:24:38;;;;;;;10.27;5.55;;;;;;;18.04;44.71;100752.91;5043606;28;20025;-67
2022/10/28 09:27:26;;;;;;;10.75;5.20;;;;;;;18.42;44.24;100757.34;5044963;28;20389;-68
2022/10/28 09:30:10;;;;;;;10.85;7.15;;;;;;;18.38;44.29;100747.91;5027102;28;20041;-68
2022/10/28 09:33:17;;;;;;;11.57;6.05;;;;;;;18.44;44.46;100748.47;5047963;28;20440;-68
2022/10/28 09:35:46;;;;;;;21.20;7.13;;;;;;;18.40;44.86;100748.38;5044101;28;20047;-69
2022/10/28 09:38:33;;;;;;;20.30;5.75;;;;;;;18.50;44.97;100732.91;5031827;28;20028;-67
2022/10/28 09:41:09;;;;;;;16.15;6.85;;;;;;;18.19;45.64;100723.03;5045067;28;20060;-69
2022/10/28 09:43:39;;;;;;;10.43;5.68;;;;;;;18.43;45.64;100724.16;5027696;28;20024;-70
2022/10/28 09:46:11;;;;;;;12.30;6.22;;;;;;;18.90;44.94;100723.53;5048786;28;20096;-68
2022/10/28 09:48:49;;;;;;;14.77;6.68;;;;;;;18.82;44.54;100724.50;5049067;28;20086;-67
2022/10/28 09:51:42;;;;;;;11.57;5.90;;;;;;;18.95;44.55;100713.94;5046837;28;20565;-68
2022/10/28 09:54:09;;;;;;;13.15;6.50;;;;;;;19.33;43.98;100708.91;5048948;28;20036;-67
2022/10/28 09:56:35;;;;;;;9.35;5.93;;;;;;;19.43;43.72;100708.38;5047178;28;20096;-68
2022/10/28 09:59:04;;;;;;;10.25;5.68;;;;;;;19.62;43.23;100706.78;5048857;28;20107;-67
2022/10/28 10:01:36;;;;;;;14.52;6.75;;;;;;;19.23;43.85;100701.75;5049004;28;20476;-68
2022/10/28 10:04:15;;;;;;;16.33;6.80;;;;;;;19.60;43.40;100700.66;5045357;28;20048;-67
2022/10/28 10:06:42;;;;;;;12.82;6.63;;;;;;;19.84;43.36;100690.28;5039915;28;20025;-68
2022/10/28 10:09:17;;;;;;;9.68;5.43;;;;;;;20.09;42.49;100690.91;5048608;28;20523;-68
2022/10/28 10:11:46;;;;;;;10.82;5.35;;;;;;;20.41;41.95;100690.78;5047762;28;20552;-70
2022/10/28 10:14:18;;;;;;;11.88;5.00;;;;;;;20.45;41.39;100688.03;5043266;28;20040;-69
2022/10/28 10:16:52;;;;;;;12.88;6.50;;;;;;;20.59;41.08;100685.47;5048467;28;20029;-69
2022/10/28 10:19:17;;;;;;;45.13;8.75;;;;;;;20.82;40.82;100683.94;5048891;28;20107;-72
2022/10/28 10:21:48;;;;;;;12.98;6.43;;;;;;;20.60;40.33;100689.97;5048147;28;20513;-69
2022/10/28 10:24:33;;;;;;;8.48;4.75;;;;;;;20.19;40.57;100680.97;5047206;28;20033;-69
2022/10/28 10:27:01;;;;;;;5.53;4.97;;;;;;;20.32;41.32;100681.66;5049112;28;20112;-67
2022/10/28 10:29:28;;;;;;;6.32;4.68;;;;;;;20.68;39.88;100661.69;5028456;28;20032;-68
2022/10/28 10:32:14;;;;;;;10.00;4.75;;;;;;;20.69;39.02;100671.88;5026845;28;20029;-68
2022/10/28 10:34:51;;;;;;;12.48;4.22;;;;;;;20.61;39.00;100673.75;5030037;28;20032;-66
2022/10/28 10:37:20;;;;;;;9.32;4.70;;;;;;;20.77;38.55;100670.81;5043460;28;20157;-69
2022/10/28 10:40:16;;;;;;;16.02;4.82;;;;;;;21.12;38.28;100669.03;5049838;28;20561;-68
2022/10/28 10:42:41;;;;;;;4.47;3.70;;;;;;;20.62;37.03;100659.13;5030971;28;20021;-68
2022/10/28 10:45:20;;;;;;;9.57;3.70;;;;;;;20.53;37.21;100654.88;5047378;28;20057;-69
2022/10/28 10:47:45;;;;;;;7.75;3.85;;;;;;;21.09;36.96;100655.59;5045808;28;20043;-69
2022/10/28 10:50:23;;;;;;;6.25;3.65;;;;;;;21.07;36.00;100658.81;5047292;28;20025;-71
2022/10/28 10:52:54;;;;;;;15.15;3.65;;;;;;;21.15;35.39;100634.97;5045058;28;20108;-68
2022/10/28 10:55:39;;;;;;;6.68;3.38;;;;;;;21.43;34.71;100645.19;5032415;28;20029;-67
2022/10/28 10:58:15;;;;;;;7.63;3.30;;;;;;;21.49;35.12;100642.03;5046586;28;20028;-67
2022/10/28 11:00:49;;;;;;;11.15;3.75;;;;;;;21.54;34.29;100634.00;5041626;28;20056;-67
2022/10/28 11:03:33;;;;;;;5.45;3.83;;;;;;;21.49;34.51;100633.50;5039159;28;20021;-67
2022/10/28 11:06:01;;;;;;;6.30;3.47;;;;;;;21.64;34.11;100632.50;5049546;28;20403;-67
2022/10/28 11:08:38;;;;;;;4.72;3.55;;;;;;;21.51;34.29;100633.94;5050486;28;20036;-66
2022/10/28 11:11:19;;;;;;;6.82;3.85;;;;;;;21.60;33.93;100632.47;5037210;28;20500;-67
2022/10/28 11:13:45;;;;;;;13.20;4.13;;;;;;;21.59;34.56;100629.97;5041672;28;20422;-65
2022/10/28 11:16:22;;;;;;;4.82;3.72;;;;;;;21.45;34.03;100634.25;5051001;28;20468;-67
2022/10/28 11:18:51;;;;;;;6.85;3.88;;;;;;;21.70;34.10;100628.16;5048949;28;20060;-67
2022/10/28 11:21:31;;;;;;;6.72;3.20;;;;;;;21.80;33.30;100632.38;5032543;28;20032;-66
2022/10/28 11:23:59;;;;;;;5.95;2.97;;;;;;;21.83;32.27;100619.38;5041620;28;20033;-72
2022/10/28 11:26:26;;;;;;;13.10;3.17;;;;;;;21.87;32.50;100628.81;5043945;28;20033;-67
2022/10/28 11:28:54;;;;;;;19.33;3.30;;;;;;;22.14;31.70;100621.06;5031350;28;20031;-70